createdAt,value
2023-05-17T00:01:11.979Z,64.17
2023-05-17T00:03:42.319Z,64.40
2023-05-17T00:06:13.001Z,64.49
2023-05-17T00:08:45.954Z,64.67
2023-05-17T00:11:16.258Z,64.65
2023-05-17T00:13:46.452Z,64.86
2023-05-17T00:16:17.894Z,64.95
2023-05-17T00:18:48.256Z,64.82
2023-05-17T00:21:18.536Z,65.03
2023-05-17T00:23:51.354Z,65.41
2023-05-17T00:26:21.581Z,65.64
2023-05-17T00:28:51.764Z,65.72
2023-05-17T00:31:21.934Z,65.56
2023-05-17T00:33:52.152Z,65.73
2023-05-17T00:36:22.456Z,65.77
2023-05-17T00:38:55.210Z,65.73
2023-05-17T00:41:25.530Z,65.78
2023-05-17T00:43:56.041Z,65.85
2023-05-17T00:46:26.320Z,65.83
2023-05-17T00:48:56.553Z,66.05
2023-05-17T00:51:26.859Z,66.68
2023-05-17T00:53:59.605Z,66.46
2023-05-17T00:56:29.817Z,66.52
2023-05-17T00:58:59.989Z,66.31
2023-05-17T01:01:30.359Z,66.57
2023-05-17T01:04:00.868Z,66.57
2023-05-17T01:06:31.472Z,66.77
2023-05-17T01:09:04.810Z,66.86
2023-05-17T01:11:43.683Z,67.26
2023-05-17T01:14:26.816Z,67.30
2023-05-17T01:17:00.083Z,67.23
2023-05-17T01:19:48.183Z,67.55
2023-05-17T01:22:24.202Z,67.42
2023-05-17T01:25:07.986Z,67.74
2023-05-17T01:27:44.447Z,67.47
2023-05-17T01:30:18.404Z,67.49
2023-05-17T01:32:49.032Z,68.18
2023-05-17T01:35:19.482Z,67.93
2023-05-17T01:37:49.744Z,67.62
2023-05-17T01:40:20.663Z,67.70
2023-05-17T01:42:58.197Z,67.54
2023-05-17T01:45:31.276Z,67.72
2023-05-17T01:48:10.092Z,67.69
2023-05-17T01:50:41.893Z,67.91
2023-05-17T01:53:15.080Z,68.07
2023-05-17T01:55:51.514Z,68.11
2023-05-17T01:58:25.680Z,68.48
2023-05-17T02:00:58.238Z,68.45
2023-05-17T02:03:31.213Z,68.53
2023-05-17T02:06:01.516Z,68.79
2023-05-17T02:08:31.712Z,68.59
2023-05-17T02:11:01.954Z,69.01
2023-05-17T02:13:36.571Z,69.16
2023-05-17T02:16:07.591Z,69.36
2023-05-17T02:18:38.480Z,69.50
2023-05-17T02:21:10.250Z,69.53
2023-05-17T02:23:40.636Z,69.57
2023-05-17T02:26:10.912Z,69.92
2023-05-17T02:28:43.939Z,69.99
2023-05-17T02:31:14.106Z,69.58
2023-05-17T02:33:44.317Z,69.80
2023-05-17T02:36:14.557Z,69.67
2023-05-17T02:38:44.776Z,70.18
2023-05-17T02:41:15.954Z,70.18
2023-05-17T02:43:48.851Z,69.78
2023-05-17T02:46:19.439Z,69.71
2023-05-17T02:48:50.924Z,69.72
2023-05-17T02:51:21.218Z,70.20
2023-05-17T02:53:51.631Z,69.91
2023-05-17T02:56:22.095Z,69.91
2023-05-17T02:58:55.748Z,69.79
2023-05-17T03:01:26.478Z,69.67
2023-05-17T03:03:57.103Z,70.09
2023-05-17T03:06:27.752Z,69.91
2023-05-17T03:08:58.060Z,69.87
2023-05-17T03:11:28.977Z,70.20
2023-05-17T03:14:03.757Z,70.56
2023-05-17T03:16:35.369Z,70.78
2023-05-17T03:19:05.766Z,70.95
2023-05-17T03:21:36.450Z,71.11
2023-05-17T03:24:08.036Z,71.47
2023-05-17T03:26:40.000Z,71.99
2023-05-17T03:29:14.794Z,72.57
2023-05-17T03:31:47.323Z,72.58
2023-05-17T03:34:18.359Z,72.20
2023-05-17T03:36:48.677Z,71.99
2023-05-17T03:39:19.087Z,71.93
2023-05-17T03:41:49.421Z,72.18
2023-05-17T03:44:22.432Z,71.92
2023-05-17T03:46:55.322Z,71.58
2023-05-17T03:49:26.819Z,71.89
2023-05-17T03:51:57.486Z,71.57
2023-05-17T03:54:27.779Z,71.43
2023-05-17T03:56:58.066Z,71.38
2023-05-17T03:59:30.993Z,71.22
2023-05-17T04:02:01.533Z,71.43
2023-05-17T04:04:33.087Z,71.52
2023-05-17T04:07:03.297Z,71.53
2023-05-17T04:09:35.282Z,71.07
2023-05-17T04:12:05.554Z,71.56
2023-05-17T04:14:38.759Z,71.91
2023-05-17T04:17:09.186Z,72.03
2023-05-17T04:19:39.596Z,71.25
2023-05-17T04:22:09.877Z,71.19
2023-05-17T04:24:40.258Z,71.17
2023-05-17T04:27:10.641Z,71.60
2023-05-17T04:29:43.700Z,71.63
2023-05-17T04:32:16.954Z,71.06
2023-05-17T04:34:47.169Z,71.11
2023-05-17T04:37:20.756Z,70.16
2023-05-17T04:39:54.311Z,69.99
2023-05-17T04:42:24.648Z,69.85
2023-05-17T04:45:01.726Z,69.79
2023-05-17T04:47:33.531Z,69.97
2023-05-17T04:50:05.859Z,69.58
2023-05-17T04:52:38.692Z,69.35
2023-05-17T04:55:09.897Z,69.72
2023-05-17T04:57:40.609Z,69.31
2023-05-17T05:00:17.319Z,68.98
2023-05-17T05:02:52.904Z,69.23
2023-05-17T05:05:25.294Z,69.77
2023-05-17T05:07:55.611Z,69.76
2023-05-17T05:10:28.826Z,69.99
2023-05-17T05:12:59.781Z,69.85
2023-05-17T05:15:32.639Z,70.06
2023-05-17T05:18:04.029Z,69.68
2023-05-17T05:20:34.980Z,69.72
2023-05-17T05:23:07.949Z,69.47
2023-05-17T05:25:41.301Z,69.73
2023-05-17T05:28:11.513Z,69.91
2023-05-17T05:30:46.893Z,69.91
2023-05-17T05:33:18.305Z,70.06
2023-05-17T05:35:49.549Z,69.83
2023-05-17T05:38:19.750Z,70.39
2023-05-17T05:40:50.905Z,70.77
2023-05-17T05:43:21.079Z,70.13
2023-05-17T05:45:53.863Z,70.56
2023-05-17T05:48:25.182Z,70.66
2023-05-17T05:50:55.609Z,71.21
2023-05-17T05:53:25.791Z,71.43
2023-05-17T05:55:58.367Z,71.60
2023-05-17T05:58:29.102Z,72.08
2023-05-17T06:01:05.320Z,72.39
2023-05-17T06:03:36.406Z,72.75
2023-05-17T06:06:06.936Z,73.22
2023-05-17T06:08:37.107Z,73.71
2023-05-17T06:11:07.545Z,73.76
2023-05-17T06:13:37.735Z,73.91
2023-05-17T06:16:10.685Z,73.56
2023-05-17T06:18:41.166Z,73.41
2023-05-17T06:21:13.587Z,73.17
2023-05-17T06:23:43.750Z,72.93
2023-05-17T06:26:13.963Z,72.88
2023-05-17T06:28:44.113Z,72.40
2023-05-17T06:31:17.760Z,72.48
2023-05-17T06:33:49.337Z,72.32
2023-05-17T06:36:19.477Z,72.98
2023-05-17T06:38:49.669Z,72.79
2023-05-17T06:41:19.856Z,72.28
2023-05-17T06:43:50.100Z,72.02
2023-05-17T06:46:23.015Z,71.90
2023-05-17T06:48:53.279Z,71.54
2023-05-17T06:51:23.631Z,71.20
2023-05-17T06:53:53.846Z,69.97
2023-05-17T06:56:24.756Z,69.68
2023-05-17T06:58:54.903Z,68.70
2023-05-17T07:01:28.269Z,68.62
2023-05-17T07:03:58.609Z,66.88
2023-05-17T07:06:28.827Z,66.60
2023-05-17T07:08:59.018Z,66.01
2023-05-17T07:11:29.180Z,65.32
2023-05-17T07:13:59.330Z,65.73
2023-05-17T07:16:32.119Z,65.42
2023-05-17T07:19:02.419Z,66.30
2023-05-17T07:21:32.720Z,64.01
2023-05-17T07:24:02.997Z,63.52
2023-05-17T07:26:33.181Z,62.24
2023-05-17T07:29:03.327Z,62.09
2023-05-17T07:31:36.510Z,61.40
2023-05-17T07:34:06.788Z,60.04
2023-05-17T07:36:37.084Z,59.02
2023-05-17T07:39:08.976Z,58.52
2023-05-17T07:41:39.941Z,59.75
2023-05-17T07:44:10.081Z,60.40
2023-05-17T07:46:43.016Z,58.24
2023-05-17T07:49:13.267Z,58.30
2023-05-17T07:51:43.569Z,58.57
2023-05-17T07:54:16.951Z,56.76
2023-05-17T07:56:47.166Z,57.01
2023-05-17T07:59:17.369Z,57.14
2023-05-17T08:01:50.346Z,57.48
2023-05-17T08:04:21.166Z,57.19
2023-05-17T08:06:51.379Z,56.56
2023-05-17T08:09:21.592Z,55.94
2023-05-17T08:11:51.924Z,56.36
2023-05-17T08:14:24.446Z,56.29
2023-05-17T08:16:57.249Z,56.70
2023-05-17T08:19:27.701Z,58.19
2023-05-17T08:22:01.251Z,58.73
2023-05-17T08:24:31.465Z,57.60
2023-05-17T08:27:03.964Z,54.55
2023-05-17T08:29:34.107Z,53.84
2023-05-17T08:32:07.300Z,54.45
2023-05-17T08:34:37.496Z,54.39
2023-05-17T08:37:08.335Z,54.18
2023-05-17T08:39:38.610Z,51.86
2023-05-17T08:42:11.118Z,48.44
2023-05-17T08:44:42.357Z,46.37
2023-05-17T08:47:26.551Z,44.82
2023-05-17T08:50:00.224Z,46.83
2023-05-17T08:52:33.150Z,48.22
2023-05-17T08:55:05.548Z,49.10
2023-05-17T08:57:37.902Z,50.27
2023-05-17T09:00:12.710Z,51.79
2023-05-17T09:02:45.667Z,53.53
2023-05-17T09:05:16.733Z,54.11
2023-05-17T09:07:47.310Z,53.98
2023-05-17T09:10:17.694Z,54.19
2023-05-17T09:12:48.311Z,54.81
2023-05-17T09:15:20.107Z,54.59
2023-05-17T09:17:57.574Z,54.28
2023-05-17T09:20:34.309Z,53.00
2023-05-17T09:23:04.904Z,53.32
2023-05-17T09:25:35.115Z,52.70
2023-05-17T09:28:09.378Z,51.60
2023-05-17T09:30:42.295Z,49.96
2023-05-17T09:33:17.764Z,49.93
2023-05-17T09:35:49.297Z,49.64
2023-05-17T09:38:19.366Z,49.26
2023-05-17T09:40:51.239Z,48.70
2023-05-17T09:43:27.376Z,48.34
2023-05-17T09:46:01.029Z,47.48
2023-05-17T09:48:34.232Z,47.73
2023-05-17T09:51:04.976Z,43.99
2023-05-17T09:53:40.079Z,40.62
2023-05-17T09:56:11.051Z,40.44
2023-05-17T09:58:41.320Z,41.20
2023-05-17T10:01:11.853Z,42.65
2023-05-17T10:03:44.857Z,43.83
2023-05-17T10:06:23.805Z,44.64
2023-05-17T10:09:06.924Z,45.78
2023-05-17T10:11:39.119Z,46.10
2023-05-17T10:14:13.499Z,44.87
2023-05-17T10:16:44.287Z,44.40
2023-05-17T10:19:19.849Z,43.63
2023-05-17T10:21:51.273Z,43.74
2023-05-17T10:24:24.998Z,42.49
2023-05-17T10:26:55.658Z,41.76
2023-05-17T10:29:26.498Z,39.63
2023-05-17T10:31:56.877Z,39.25
2023-05-17T10:34:31.231Z,40.37
2023-05-17T10:37:01.795Z,40.18
2023-05-17T10:39:32.463Z,39.88
2023-05-17T10:42:14.361Z,40.60
2023-05-17T10:44:45.654Z,39.03
2023-05-17T10:47:17.879Z,37.49
2023-05-17T10:49:52.164Z,34.76
2023-05-17T10:52:24.818Z,33.15
2023-05-17T10:54:57.126Z,31.44
2023-05-17T11:00:12.595Z,33.21
2023-05-17T11:02:43.929Z,34.72
2023-05-17T11:05:29.921Z,36.51
2023-05-17T11:08:15.932Z,38.24
2023-05-17T11:11:14.284Z,39.41
2023-05-17T11:13:55.305Z,40.12
2023-05-17T11:16:31.042Z,36.48
2023-05-17T11:19:10.674Z,33.69
2023-05-17T11:21:51.853Z,32.46
2023-05-17T11:24:28.980Z,32.94
2023-05-17T11:27:01.513Z,33.00
2023-05-17T11:29:32.963Z,34.13
2023-05-17T11:32:09.065Z,34.85
2023-05-17T11:34:39.486Z,33.75
2023-05-17T11:37:28.843Z,33.46
2023-05-17T11:40:07.119Z,31.85
2023-05-17T11:42:38.505Z,31.28
2023-05-17T11:45:10.139Z,28.20
2023-05-17T11:47:43.461Z,27.43
2023-05-17T11:50:15.106Z,26.42
2023-05-17T11:52:48.343Z,28.84
2023-05-17T11:55:19.132Z,31.18
2023-05-17T11:57:49.492Z,32.11
2023-05-17T12:00:20.716Z,32.52
2023-05-17T12:02:51.019Z,33.03
2023-05-17T12:05:23.268Z,33.45
2023-05-17T12:07:56.121Z,31.80
2023-05-17T12:10:26.721Z,32.81
2023-05-17T12:12:57.115Z,31.17
2023-05-17T12:15:28.354Z,30.92
2023-05-17T12:17:58.751Z,27.99
2023-05-17T12:20:30.275Z,28.80
2023-05-17T12:23:03.516Z,30.30
2023-05-17T12:25:33.822Z,30.90
2023-05-17T12:28:16.548Z,29.70
2023-05-17T12:30:47.268Z,27.59
2023-05-17T12:33:17.995Z,26.78
2023-05-17T12:35:48.627Z,28.80
2023-05-17T12:38:21.884Z,30.39
2023-05-17T12:40:52.477Z,31.25
2023-05-17T12:43:24.492Z,31.12
2023-05-17T12:45:56.079Z,31.55
2023-05-17T12:48:29.770Z,28.33
2023-05-17T12:51:00.029Z,26.16
2023-05-17T12:53:41.172Z,27.23
2023-05-17T12:56:11.943Z,29.02
2023-05-17T12:58:42.120Z,29.39
2023-05-17T13:01:14.779Z,31.54
2023-05-17T13:03:45.076Z,31.68
2023-05-17T13:06:15.359Z,31.95
2023-05-17T13:08:48.254Z,31.19
2023-05-17T13:11:18.693Z,27.08
2023-05-17T13:13:49.233Z,27.14
2023-05-17T13:16:19.441Z,28.79
2023-05-17T13:18:53.809Z,29.91
2023-05-17T13:21:24.735Z,29.87
2023-05-17T13:23:57.576Z,30.70
2023-05-17T13:26:27.821Z,31.64
2023-05-17T13:28:58.064Z,31.85
2023-05-17T13:31:28.352Z,31.47
2023-05-17T13:33:58.668Z,31.88
2023-05-17T13:36:31.651Z,32.47
2023-05-17T13:39:04.906Z,29.82
2023-05-17T13:41:35.192Z,27.94
2023-05-17T13:44:05.348Z,28.58
2023-05-17T13:46:35.716Z,27.83
2023-05-17T13:49:08.099Z,25.63
2023-05-17T13:51:39.794Z,22.88
2023-05-17T13:54:13.445Z,22.66
2023-05-17T13:56:43.843Z,22.43
2023-05-17T13:59:14.037Z,23.75
2023-05-17T14:01:45.577Z,25.66
2023-05-17T14:04:15.897Z,25.96
2023-05-17T14:06:48.636Z,26.69
2023-05-17T14:09:22.174Z,28.08
2023-05-17T14:11:52.385Z,29.37
2023-05-17T14:14:25.264Z,30.35
2023-05-17T14:16:55.477Z,27.41
2023-05-17T14:19:25.805Z,24.37
2023-05-17T14:21:56.196Z,22.31
2023-05-17T14:24:29.148Z,21.87
2023-05-17T14:26:59.403Z,21.18
2023-05-17T14:29:30.564Z,22.61
2023-05-17T14:32:00.921Z,24.69
2023-05-17T14:34:31.181Z,24.95
2023-05-17T14:37:01.440Z,23.00
2023-05-17T14:39:34.340Z,21.57
2023-05-17T14:42:04.586Z,21.31
2023-05-17T14:44:34.958Z,20.97
2023-05-17T14:47:05.285Z,20.55
2023-05-17T14:49:35.496Z,21.33
2023-05-17T14:52:05.703Z,20.88
2023-05-17T14:54:38.702Z,21.71
2023-05-17T14:57:09.034Z,21.50
2023-05-17T14:59:39.576Z,21.54
2023-05-17T15:02:11.898Z,22.92
2023-05-17T15:04:42.207Z,23.29
2023-05-17T15:07:12.505Z,24.49
2023-05-17T15:09:46.102Z,25.48
2023-05-17T15:12:16.398Z,25.59
2023-05-17T15:14:47.847Z,25.99
2023-05-17T15:17:18.168Z,27.16
2023-05-17T15:19:48.546Z,26.73
2023-05-17T15:22:20.232Z,28.18
2023-05-17T15:24:54.459Z,29.05
2023-05-17T15:27:24.663Z,28.95
2023-05-17T15:29:55.044Z,28.58
2023-05-17T15:32:25.317Z,29.86
2023-05-17T15:34:55.819Z,30.57
2023-05-17T15:37:26.378Z,31.03
2023-05-17T15:39:59.304Z,29.53
2023-05-17T15:42:29.420Z,29.97
2023-05-17T15:44:59.607Z,29.84
2023-05-17T15:47:42.661Z,31.01
2023-05-17T15:50:14.579Z,31.02
2023-05-17T15:52:44.943Z,32.18
2023-05-17T15:55:17.913Z,31.88
2023-05-17T15:57:48.364Z,32.23
2023-05-17T16:00:19.369Z,33.03
2023-05-17T16:02:49.779Z,33.48
2023-05-17T16:05:20.079Z,35.07
2023-05-17T16:07:50.231Z,34.38
2023-05-17T16:10:23.293Z,33.95
2023-05-17T16:12:53.506Z,33.35
2023-05-17T16:15:24.024Z,34.64
2023-05-17T16:17:54.503Z,32.84
2023-05-17T16:20:24.877Z,33.36
2023-05-17T16:22:55.107Z,34.11
2023-05-17T16:25:28.944Z,34.12
2023-05-17T16:27:59.464Z,34.52
2023-05-17T16:30:29.805Z,34.69
2023-05-17T16:33:00.157Z,34.75
2023-05-17T16:35:31.274Z,35.59
2023-05-17T16:38:01.657Z,35.62
2023-05-17T16:40:34.645Z,35.95
2023-05-17T16:43:04.865Z,36.36
2023-05-17T16:45:35.192Z,36.22
2023-05-17T16:48:05.496Z,35.80
2023-05-17T16:50:35.886Z,36.29
2023-05-17T16:53:06.110Z,36.60
2023-05-17T16:55:39.336Z,37.08
2023-05-17T16:58:09.563Z,35.14
2023-05-17T17:00:39.802Z,36.27
2023-05-17T17:03:10.202Z,35.14
2023-05-17T17:05:40.864Z,35.76
2023-05-17T17:08:11.088Z,35.63
2023-05-17T17:10:43.928Z,34.91
2023-05-17T17:13:14.135Z,35.62
2023-05-17T17:15:44.435Z,36.81
2023-05-17T17:18:14.732Z,37.58
2023-05-17T17:20:45.446Z,36.46
2023-05-17T17:23:15.954Z,36.18
2023-05-17T17:25:48.831Z,35.72
2023-05-17T17:28:19.187Z,35.67
2023-05-17T17:30:51.541Z,36.60
2023-05-17T17:33:22.118Z,37.75
2023-05-17T17:35:52.580Z,38.13
2023-05-17T17:38:23.041Z,37.98
2023-05-17T17:40:55.944Z,37.96
2023-05-17T17:43:26.230Z,38.41
2023-05-17T17:45:56.667Z,39.31
2023-05-17T17:48:27.293Z,39.97
2023-05-17T17:50:57.612Z,39.46
2023-05-17T17:53:28.993Z,39.49
2023-05-17T17:56:01.853Z,38.75
2023-05-17T17:58:32.716Z,39.37
2023-05-17T18:01:03.121Z,37.97
2023-05-17T18:03:33.379Z,39.96
2023-05-17T18:06:04.902Z,39.28
2023-05-17T18:08:35.089Z,40.60
2023-05-17T18:11:08.062Z,41.32
2023-05-17T18:13:38.776Z,41.27
2023-05-17T18:16:09.540Z,40.91
2023-05-17T18:18:41.031Z,40.31
2023-05-17T18:21:11.648Z,40.87
2023-05-17T18:23:41.866Z,41.07
2023-05-17T18:26:15.082Z,41.17
2023-05-17T18:28:45.676Z,41.76
2023-05-17T18:31:16.043Z,42.62
2023-05-17T18:33:46.457Z,42.79
2023-05-17T18:36:16.844Z,42.35
2023-05-17T18:38:47.663Z,41.82
2023-05-17T18:41:21.138Z,42.68
2023-05-17T18:43:51.385Z,42.83
2023-05-17T18:46:21.798Z,42.67
2023-05-17T18:48:52.828Z,42.94
2023-05-17T18:51:23.078Z,43.05
2023-05-17T18:53:53.966Z,43.21
2023-05-17T18:56:26.923Z,43.62
2023-05-17T18:58:57.675Z,44.01
2023-05-17T19:01:28.519Z,44.26
2023-05-17T19:03:59.181Z,44.23
2023-05-17T19:06:32.029Z,44.47
2023-05-17T19:09:04.510Z,44.65
2023-05-17T19:11:37.318Z,44.79
2023-05-17T19:14:07.550Z,44.83
2023-05-17T19:16:37.772Z,45.03
2023-05-17T19:19:08.141Z,44.94
2023-05-17T19:21:38.467Z,45.05
2023-05-17T19:24:09.515Z,45.79
2023-05-17T19:26:42.523Z,46.09
2023-05-17T19:29:12.770Z,46.91
2023-05-17T19:31:43.019Z,47.58
2023-05-17T19:34:13.291Z,48.17
2023-05-17T19:36:43.496Z,48.32
2023-05-17T19:39:13.729Z,49.37
2023-05-17T19:41:46.556Z,49.95
2023-05-17T19:44:16.853Z,49.88
2023-05-17T19:46:47.280Z,49.97
2023-05-17T19:49:17.589Z,49.91
2023-05-17T19:51:48.398Z,50.49
2023-05-17T19:54:18.669Z,50.77
2023-05-17T19:56:51.507Z,51.37
2023-05-17T19:59:21.713Z,51.23
2023-05-17T20:01:52.104Z,51.67
2023-05-17T20:04:22.385Z,51.87
2023-05-17T20:06:52.711Z,52.81
2023-05-17T20:09:25.108Z,53.07
2023-05-17T20:11:59.624Z,53.36
2023-05-17T20:14:30.293Z,53.06
2023-05-17T20:17:00.493Z,53.09
2023-05-17T20:19:30.893Z,53.49
2023-05-17T20:22:01.914Z,53.76
2023-05-17T20:24:35.005Z,54.11
2023-05-17T20:27:08.155Z,54.04
2023-05-17T20:29:38.653Z,54.82
2023-05-17T20:32:09.530Z,54.50
2023-05-17T20:34:39.777Z,54.88
2023-05-17T20:37:09.973Z,54.68
2023-05-17T20:39:40.213Z,54.64
2023-05-17T20:42:18.342Z,54.69
2023-05-17T20:44:49.278Z,55.13
2023-05-17T20:47:19.532Z,55.75
2023-05-17T20:49:50.469Z,55.56
2023-05-17T20:52:38.023Z,55.79
2023-05-17T20:55:10.947Z,56.42
2023-05-17T20:57:43.774Z,56.42
2023-05-17T21:00:17.181Z,55.83
2023-05-17T21:02:47.748Z,55.42
2023-05-17T21:05:18.133Z,55.68
2023-05-17T21:07:50.674Z,55.97
2023-05-17T21:10:21.027Z,55.93
2023-05-17T21:12:53.910Z,56.15
2023-05-17T21:15:24.434Z,56.08
2023-05-17T21:17:54.813Z,56.14
2023-05-17T21:20:25.282Z,56.66
2023-05-17T21:22:55.560Z,56.73
2023-05-17T21:25:26.145Z,56.52
2023-05-17T21:27:59.130Z,56.92
2023-05-17T21:30:30.058Z,57.07
2023-05-17T21:33:00.650Z,58.14
2023-05-17T21:35:31.106Z,57.88
2023-05-17T21:38:01.302Z,57.67
2023-05-17T21:40:31.961Z,57.53
2023-05-17T21:43:05.093Z,57.57
2023-05-17T21:45:35.508Z,57.31
2023-05-17T21:48:05.859Z,57.08
2023-05-17T21:50:36.203Z,57.24
2023-05-17T21:53:10.132Z,57.80
2023-05-17T21:55:56.419Z,58.17
2023-05-17T21:58:33.509Z,58.66
2023-05-17T22:01:04.541Z,58.58
2023-05-17T22:03:34.946Z,58.80
2023-05-17T22:06:05.311Z,58.81
2023-05-17T22:08:35.551Z,58.88
2023-05-17T22:11:05.953Z,59.07
2023-05-17T22:13:38.799Z,59.17
2023-05-17T22:16:09.888Z,59.14
2023-05-17T22:18:40.190Z,59.31
2023-05-17T22:21:14.659Z,59.73
2023-05-17T22:23:45.078Z,59.66
2023-05-17T22:26:15.523Z,59.78
2023-05-17T22:28:48.402Z,60.06
2023-05-17T22:31:18.739Z,60.06
2023-05-17T22:33:49.087Z,59.95
2023-05-17T22:36:19.752Z,59.70
2023-05-17T22:38:50.072Z,59.87
2023-05-17T22:41:20.335Z,59.95
2023-05-17T22:43:53.219Z,60.16
2023-05-17T22:46:24.577Z,60.24
2023-05-17T22:48:54.844Z,60.74
2023-05-17T22:51:25.100Z,61.02
2023-05-17T22:53:55.355Z,60.53
2023-05-17T22:56:26.434Z,60.42
2023-05-17T22:58:59.314Z,60.27
2023-05-17T23:01:31.611Z,60.28
2023-05-17T23:04:01.827Z,60.78
2023-05-17T23:06:34.586Z,60.74
2023-05-17T23:09:06.332Z,60.18
2023-05-17T23:11:41.217Z,60.03
2023-05-17T23:14:14.363Z,60.59
2023-05-17T23:16:44.624Z,61.23
2023-05-17T23:19:17.326Z,61.39
2023-05-17T23:21:49.221Z,61.49
2023-05-17T23:24:19.359Z,61.72
2023-05-17T23:26:50.203Z,61.77
2023-05-17T23:29:22.954Z,61.41
2023-05-17T23:31:53.302Z,61.46
2023-05-17T23:34:24.026Z,61.54
2023-05-17T23:36:54.465Z,61.48
2023-05-17T23:39:24.670Z,61.85
2023-05-17T23:41:55.519Z,62.27
2023-05-17T23:44:28.740Z,62.63
2023-05-17T23:47:00.163Z,62.66
2023-05-17T23:49:30.511Z,62.62
2023-05-17T23:52:02.274Z,63.02
2023-05-17T23:54:32.572Z,63.16
2023-05-17T23:57:02.825Z,63.48
2023-05-17T23:59:36.742Z,63.42
